Time;durP1;ratioP1;P1;durP2;ratioP2;P2;SDS_P1;SDS_P2;PMS_P1;PMS_P2;Temp;Humidity;BMP_temperature;BMP_pressure;BME280_temperature;BME280_humidity;BME280_pressure;Samples;Min_cycle;Max_cycle;Signal;HPM_P1;HPM_P2
2021/01/28 00:05:09;;;;;;;7.33;5.50;;;;;;;-0.59;93.20;99213.69;1714143;81;21057;-44
2021/01/28 00:07:41;;;;;;;8.13;6.20;;;;;;;-0.56;93.16;99207.03;1708949;81;21154;-46
2021/01/28 00:10:40;;;;;;;9.47;5.37;;;;;;;-0.58;92.71;99217.58;1618175;83;21140;-41
2021/01/28 00:13:25;;;;;;;10.10;5.80;;;;;;;-0.58;92.51;99235.91;1710477;81;21186;-41
2021/01/28 00:16:08;;;;;;;7.53;5.47;;;;;;;-0.57;92.37;99236.30;1625212;86;21988;-43
2021/01/28 00:19:29;;;;;;;8.57;5.60;;;;;;;-0.48;92.83;99235.12;1790418;78;27948;-42
2021/01/28 00:26:20;;;;;;;9.40;6.20;;;;;;;-0.45;92.41;99186.13;1642378;85;21228;-41
2021/01/28 00:29:29;;;;;;;8.77;5.50;;;;;;;-0.47;91.92;99176.61;1693133;80;21483;-45
2021/01/28 00:32:43;;;;;;;9.70;4.97;;;;;;;-0.48;92.22;99181.43;1646561;86;21612;-41
2021/01/28 00:35:55;;;;;;;;;;;;;;;;;;;;;
2021/01/28 00:38:38;;;;;;;8.37;4.93;;;;;;;-0.49;91.56;99201.53;1672190;84;21133;-45
2021/01/28 00:42:44;;;;;;;6.75;4.85;;;;;;;-0.46;92.28;99197.50;1580320;88;21128;-44
2021/01/28 00:49:32;;;;;;;7.70;5.70;;;;;;;-0.45;91.37;99183.52;1739524;80;21106;-46
2021/01/28 00:56:57;;;;;;;6.97;5.20;;;;;;;-0.36;91.89;99175.77;1744354;80;21190;-40
2021/01/28 00:59:51;;;;;;;6.13;5.40;;;;;;;-0.36;90.87;99160.52;1734463;81;21153;-42
2021/01/28 01:02:19;;;;;;;7.33;5.27;;;;;;;-0.37;91.04;99174.08;1727876;81;21158;-41
2021/01/28 01:07:46;;;;;;;8.17;6.30;;;;;;;-0.33;90.84;99158.66;1728072;81;21602;-41
2021/01/28 01:10:28;;;;;;;8.03;6.60;;;;;;;-0.32;90.90;99161.67;1720707;81;21129;-41
2021/01/28 01:16:41;;;;;;;7.73;5.30;;;;;;;-0.37;90.09;99140.02;1724631;81;21157;-44
2021/01/28 01:19:46;;;;;;;7.37;5.63;;;;;;;-0.40;89.38;99137.94;1637776;86;21242;-46
2021/01/28 01:22:42;;;;;;;8.23;6.23;;;;;;;-0.44;88.84;99138.05;1636347;85;21342;-42
2021/01/28 01:26:50;;;;;;;10.13;5.80;;;;;;;-0.44;89.20;99145.91;1583375;89;21157;-43
2021/01/28 01:29:48;;;;;;;;;;;;;;;;;;;;;
2021/01/28 01:32:25;;;;;;;7.70;4.87;;;;;;;-0.50;88.46;99131.73;1800133;77;21167;-42
2021/01/28 01:38:55;;;;;;;9.17;6.33;;;;;;;-0.51;88.53;99140.48;1779637;79;21208;-43
2021/01/28 01:46:29;;;;;;;10.30;5.53;;;;;;;-0.49;88.81;99122.95;1782824;78;24236;-42
2021/01/28 01:49:26;;;;;;;7.70;5.57;;;;;;;-0.54;88.94;99120.95;1734672;81;21136;-42
2021/01/28 01:56:19;;;;;;;8.50;5.23;;;;;;;-0.55;90.80;99118.41;1729868;81;21057;-44
2021/01/28 02:07:26;;;;;;;;;;;;;;;;;;;;;
2021/01/28 02:10:18;;;;;;;10.50;6.63;;;;;;;-0.50;88.47;99101.61;1700504;83;21533;-45
2021/01/28 02:17:53;;;;;;;9.87;5.83;;;;;;;-0.55;87.69;99081.73;1702948;82;21411;-41
2021/01/28 02:21:20;;;;;;;8.50;6.27;;;;;;;-0.56;87.21;99074.31;1695710;83;21065;-43
2021/01/28 02:32:19;;;;;;;8.93;6.07;;;;;;;-0.53;87.83;99089.06;1815122;77;21050;-42
2021/01/28 02:35:32;;;;;;;9.37;5.93;;;;;;;-0.50;87.34;99082.42;1728951;80;21363;-41
2021/01/28 02:42:32;;;;;;;10.57;6.60;;;;;;;-0.46;86.50;99059.97;1701352;81;21560;-41
2021/01/28 02:49:28;;;;;;;8.65;6.25;;;;;;;-0.35;86.24;99118.98;1856061;75;27078;-42
2021/01/28 02:51:57;;;;;;;9.50;6.40;;;;;;;-0.37;85.21;99112.52;1808953;77;21145;-41
2021/01/28 02:54:26;;;;;;;10.03;5.93;;;;;;;-0.35;85.35;99105.89;1813586;76;21278;-44
2021/01/28 02:56:54;;;;;;;9.08;5.95;;;;;;;-0.33;85.39;99106.27;1798577;78;21445;-41
2021/01/28 02:59:22;;;;;;;12.47;7.83;;;;;;;-0.29;85.46;99105.69;1798077;77;21153;-40
2021/01/28 03:01:50;;;;;;;13.63;8.20;;;;;;;-0.28;84.34;99092.97;1768012;78;21162;-40
2021/01/28 03:04:19;;;;;;;11.07;7.20;;;;;;;-0.29;84.11;99083.41;1752770;79;21162;-40
2021/01/28 03:06:59;;;;;;;13.93;8.07;;;;;;;-0.29;84.26;99091.28;1763599;78;21138;-40
2021/01/28 03:09:26;;;;;;;12.63;7.90;;;;;;;-0.28;83.71;99110.88;1775960;78;21115;-38
2021/01/28 03:12:15;;;;;;;9.98;7.15;;;;;;;-0.24;83.14;99099.83;1770147;78;22916;-43
2021/01/28 03:14:44;;;;;;;11.87;7.90;;;;;;;-0.27;83.62;99094.23;1685087;83;21407;-43
2021/01/28 03:17:12;;;;;;;11.63;8.30;;;;;;;-0.29;82.89;99079.02;1704841;84;21660;-42
2021/01/28 03:19:42;;;;;;;10.95;7.62;;;;;;;-0.29;82.96;99071.16;1698068;82;21712;-42
2021/01/28 03:22:16;;;;;;;10.43;7.33;;;;;;;-0.31;82.66;99072.98;1699478;84;21888;-41
2021/01/28 03:24:57;;;;;;;12.40;8.87;;;;;;;-0.30;82.58;99087.80;1697402;83;21320;-42
2021/01/28 03:35:10;;;;;;;11.37;7.87;;;;;;;-0.26;81.89;99074.13;1697020;82;21248;-44
2021/01/28 03:41:24;;;;;;;8.60;6.07;;;;;;;-0.25;81.21;99071.92;1562476;89;21265;-43
2021/01/28 03:44:11;;;;;;;11.13;7.30;;;;;;;-0.26;81.04;99079.37;1779116;79;28463;-43
2021/01/28 03:50:43;;;;;;;9.80;7.40;;;;;;;-0.32;81.11;99083.53;1753532;80;21085;-39
2021/01/28 04:04:49;;;;;;;10.55;7.10;;;;;;;-0.18;81.11;99081.24;1781355;78;21261;-42
2021/01/28 04:07:45;;;;;;;11.73;7.27;;;;;;;-0.16;80.30;99079.42;1781491;78;21094;-41
2021/01/28 04:10:30;;;;;;;11.13;7.87;;;;;;;-0.13;80.34;99083.70;1772975;79;21284;-41
2021/01/28 04:12:59;;;;;;;12.47;8.50;;;;;;;-0.09;80.00;99082.69;1773891;79;21771;-43
2021/01/28 04:22:14;;;;;;;14.07;7.90;;;;;;;-0.03;79.81;99070.65;1806373;77;24174;-42
2021/01/28 04:25:59;;;;;;;9.45;6.17;;;;;;;-0.07;79.68;99072.55;1592388;88;21426;-44
2021/01/28 04:29:37;;;;;;;8.80;6.37;;;;;;;-0.06;79.83;99083.88;1539015;91;21330;-44
2021/01/28 04:33:14;;;;;;;9.33;7.50;;;;;;;-0.04;79.51;99068.49;1893244;74;28130;-39
2021/01/28 04:36:04;;;;;;;11.50;6.97;;;;;;;-0.06;79.86;99066.38;1832578;75;21122;-42
2021/01/28 04:46:46;;;;;;;11.77;7.60;;;;;;;-0.12;80.03;99068.39;1815271;77;21081;-41
2021/01/28 04:49:58;;;;;;;9.73;7.17;;;;;;;-0.07;80.22;99059.91;1788621;78;23104;-43
2021/01/28 04:55:50;;;;;;;9.73;7.10;;;;;;;-0.15;81.03;99044.47;1747985;80;21210;-43
2021/01/28 04:59:01;;;;;;;9.53;6.77;;;;;;;-0.16;82.12;99044.51;1729541;82;21190;-42
2021/01/28 05:01:44;;;;;;;9.43;6.20;;;;;;;-0.20;82.35;99039.85;1727844;81;21167;-41
2021/01/28 05:04:52;;;;;;;10.27;6.93;;;;;;;-0.23;85.09;99032.08;1659101;83;21299;-41
2021/01/28 05:15:33;;;;;;;9.97;7.87;;;;;;;-0.41;87.35;99030.15;1595278;89;21196;-45
2021/01/28 05:30:42;;;;;;;9.60;6.87;;;;;;;-0.56;90.29;99028.48;1819199;77;21196;-43
2021/01/28 05:34:52;;;;;;;;;;;;;;;;;;;;;
2021/01/28 05:37:43;;;;;;;10.73;7.53;;;;;;;-0.54;90.49;99016.65;1765280;80;21142;-51
2021/01/28 05:48:31;;;;;;;12.20;8.50;;;;;;;-0.51;89.62;99019.99;1656529;84;21280;-43
2021/01/28 05:51:27;;;;;;;12.30;8.00;;;;;;;-0.53;91.06;99032.31;1671946;84;21172;-42
2021/01/28 05:56:04;;;;;;;11.23;7.10;;;;;;;-0.47;90.57;99033.39;1848981;75;27482;-45
2021/01/28 05:59:09;;;;;;;12.05;8.23;;;;;;;-0.47;90.08;99036.02;1810333;77;21134;-43
2021/01/28 06:02:20;;;;;;;12.20;8.47;;;;;;;-0.48;89.40;99031.70;1687500;83;21299;-43
2021/01/28 06:13:20;;;;;;;12.43;8.80;;;;;;;-0.46;88.52;99028.54;1846017;76;21812;-44
2021/01/28 06:24:22;;;;;;;14.10;9.93;;;;;;;-0.46;88.13;99019.38;1744296;80;21069;-43
2021/01/28 06:27:07;;;;;;;18.97;10.23;;;;;;;-0.43;87.50;99019.72;1746368;81;21911;-41
2021/01/28 06:30:04;;;;;;;16.33;10.33;;;;;;;-0.33;93.14;99026.36;1750818;80;21153;-38
2021/01/28 06:41:12;;;;;;;16.97;12.00;;;;;;;-0.01;88.42;99009.86;1753588;80;21984;-40
2021/01/28 06:44:50;;;;;;;15.63;10.40;;;;;;;-0.06;86.05;99001.31;1699094;81;21193;-42
2021/01/28 06:48:12;;;;;;;15.27;10.33;;;;;;;-0.17;87.22;98999.58;1798396;78;23625;-48
2021/01/28 06:51:49;;;;;;;15.27;11.00;;;;;;;-0.25;87.49;99006.41;1756480;80;21804;-42
2021/01/28 06:54:56;;;;;;;15.53;10.17;;;;;;;-0.29;87.39;98988.63;1675486;83;21212;-43
2021/01/28 07:02:28;;;;;;;14.50;10.37;;;;;;;-0.37;88.62;98978.05;1779910;79;21564;-39
2021/01/28 07:05:49;;;;;;;16.87;11.20;;;;;;;-0.40;88.55;98968.55;1780560;79;21099;-42
2021/01/28 07:08:41;;;;;;;;;;;;;;;-0.39;88.41;98970.70;1773156;79;21174;-44
2021/01/28 07:11:31;;;;;;;22.17;11.73;;;;;;;-0.36;88.18;98967.50;1721587;81;20208;-41
2021/01/28 07:14:17;;;;;;;22.93;13.60;;;;;;;-0.35;87.32;98973.16;1702222;82;21160;-43
2021/01/28 07:17:22;;;;;;;19.90;14.30;;;;;;;-0.34;88.00;98966.98;1776494;78;28786;-41
2021/01/28 07:19:57;;;;;;;19.52;12.47;;;;;;;-0.36;88.09;98978.44;1781039;78;21152;-40
2021/01/28 07:22:31;;;;;;;18.70;12.00;;;;;;;-0.29;88.33;98984.70;1790498;78;21449;-42
2021/01/28 07:25:34;;;;;;;15.83;10.60;;;;;;;-0.19;88.34;98993.06;1799629;78;22961;-44
2021/01/28 07:28:12;;;;;;;16.97;12.20;;;;;;;-0.19;87.96;98994.84;1767347;79;21140;-45
2021/01/28 07:30:47;;;;;;;19.30;11.88;;;;;;;-0.22;90.32;98990.57;1770856;79;21612;-42
2021/01/28 07:34:01;;;;;;;19.70;12.13;;;;;;;-0.22;91.35;98973.54;1774931;79;21141;-45
2021/01/28 07:36:42;;;;;;;21.57;13.77;;;;;;;-0.27;93.23;98973.70;1767603;79;21144;-44
2021/01/28 07:39:37;;;;;;;19.73;13.23;;;;;;;-0.29;91.70;98966.82;1780989;78;21309;-45
2021/01/28 07:42:28;;;;;;;19.23;12.60;;;;;;;-0.32;92.13;98965.17;1776750;79;21141;-44
2021/01/28 07:45:33;;;;;;;20.37;13.70;;;;;;;-0.36;93.72;98974.51;1772377;78;21914;-44
2021/01/28 07:48:26;;;;;;;20.00;12.68;;;;;;;-0.47;97.16;98974.45;1774117;79;21140;-44
2021/01/28 07:51:37;;;;;;;19.17;12.63;;;;;;;-0.41;98.28;98996.09;1821595;76;22888;-43
2021/01/28 07:54:49;;;;;;;24.30;13.93;;;;;;;-0.43;99.00;99009.23;1747216;80;21275;-41
2021/01/28 08:01:47;;;;;;;21.03;13.57;;;;;;;-0.45;99.93;99022.88;1751935;79;21165;-43
2021/01/28 08:05:33;;;;;;;25.20;15.10;;;;;;;-0.41;100.00;99015.73;1672703;84;21263;-44
2021/01/28 08:19:25;;;;;;;21.23;13.10;;;;;;;1.67;98.47;98977.44;1777131;78;22684;-42
2021/01/28 08:22:46;;;;;;;21.40;13.27;;;;;;;-0.11;96.23;98984.45;1758693;79;21182;-42
2021/01/28 08:26:03;;;;;;;;;;;;;;;;;;;;;
2021/01/28 08:32:47;;;;;;;17.83;11.03;;;;;;;-0.36;99.55;98991.54;1827030;75;27106;-41
2021/01/28 08:37:10;;;;;;;21.33;12.03;;;;;;;-0.46;99.04;98981.85;1795657;77;21523;-42
2021/01/28 08:39:38;;;;;;;17.60;10.57;;;;;;;-0.46;99.04;98981.85;1807085;77;21138;-40
2021/01/28 08:45:12;;;;;;;16.13;10.33;;;;;;;-0.39;98.86;98988.58;1891671;74;23060;-42
2021/01/28 08:47:40;;;;;;;18.10;9.95;;;;;;;-0.46;98.67;98989.71;1861062;75;21144;-40
2021/01/28 08:50:15;;;;;;;13.70;8.53;;;;;;;-0.48;98.20;98975.81;1792996;78;21128;-44
2021/01/28 08:52:44;;;;;;;13.07;8.53;;;;;;;-0.48;97.70;98963.59;1774677;78;22285;-39
2021/01/28 08:55:21;;;;;;;16.97;10.23;;;;;;;-0.47;97.39;98965.29;1799877;77;21838;-45
2021/01/28 08:58:01;;;;;;;13.40;9.00;;;;;;;-0.44;97.69;98975.64;1798488;78;21123;-44
2021/01/28 09:00:29;;;;;;;16.25;9.60;;;;;;;-0.47;97.51;98960.52;1730025;80;21211;-44
2021/01/28 09:02:57;;;;;;;13.00;8.90;;;;;;;-0.47;96.75;98965.29;1748189;80;21233;-45
2021/01/28 09:05:27;;;;;;;14.17;8.00;;;;;;;-0.47;96.77;98957.43;1755506;80;21590;-44
2021/01/28 09:07:58;;;;;;;15.55;8.65;;;;;;;-0.47;96.48;98963.98;1751117;80;21261;-44
2021/01/28 09:10:42;;;;;;;13.18;8.50;;;;;;;-0.45;95.70;98960.85;1728310;80;21143;-44
2021/01/28 09:13:21;;;;;;;11.93;7.90;;;;;;;-0.49;95.41;98957.94;1740562;80;21236;-45
2021/01/28 09:15:56;;;;;;;14.17;8.97;;;;;;;-0.45;98.03;98955.61;1741748;80;21555;-45
2021/01/28 09:18:33;;;;;;;12.30;7.93;;;;;;;-0.47;100.00;98948.73;1766196;79;22862;-46
2021/01/28 09:21:23;;;;;;;13.50;9.90;;;;;;;-0.52;97.52;98939.72;1736676;80;21153;-43
2021/01/28 09:24:01;;;;;;;11.65;7.85;;;;;;;-0.51;96.51;98932.25;1737129;80;21582;-44
2021/01/28 09:26:35;;;;;;;12.63;7.37;;;;;;;-0.45;96.84;98949.06;1738369;80;21279;-45
2021/01/28 09:29:16;;;;;;;13.90;8.17;;;;;;;-0.47;96.70;98945.64;1737681;80;21844;-44
2021/01/28 09:31:43;;;;;;;;;;;;;;;-0.46;98.78;98944.72;1733436;80;21160;-43
2021/01/28 09:37:08;;;;;;;10.13;6.67;;;;;;;-0.28;99.55;98925.28;1792683;78;23072;-41
2021/01/28 09:39:45;;;;;;;12.63;7.78;;;;;;;-0.34;99.50;98924.22;1774443;79;22067;-43
2021/01/28 09:42:33;;;;;;;13.03;8.23;;;;;;;-0.40;99.48;98925.75;1720690;81;21147;-43
2021/01/28 09:45:10;;;;;;;13.20;8.03;;;;;;;-0.40;99.47;98927.94;1722404;81;21149;-43
2021/01/28 09:47:38;;;;;;;12.00;8.07;;;;;;;-0.45;99.31;98925.95;1742610;81;21641;-45
2021/01/28 09:50:10;;;;;;;9.90;6.73;;;;;;;-0.43;99.17;98929.34;1714191;81;22121;-38
2021/01/28 09:52:46;;;;;;;11.80;8.45;;;;;;;-0.52;99.08;98925.78;1708395;82;22122;-43
2021/01/28 09:55:21;;;;;;;10.70;7.03;;;;;;;-0.49;99.22;98921.73;1718103;82;21189;-41
2021/01/28 09:57:50;;;;;;;11.43;6.90;;;;;;;-0.43;99.30;98928.03;1719091;81;21444;-44
2021/01/28 10:00:21;;;;;;;10.77;6.73;;;;;;;-0.38;99.32;98926.09;1717161;82;21165;-42
2021/01/28 10:03:01;;;;;;;9.35;6.72;;;;;;;-0.33;99.46;98925.48;1714764;82;21153;-45
2021/01/28 10:05:33;;;;;;;8.50;5.53;;;;;;;-0.32;99.65;98936.81;1718111;82;21175;-44
2021/01/28 10:12:26;;;;;;;8.57;6.23;;;;;;;-0.32;99.65;98936.81;1715632;82;21149;-43
2021/01/28 10:15:36;;;;;;;10.00;6.08;;;;;;;-0.32;99.65;98936.81;1714041;82;21196;-43
2021/01/28 10:18:05;;;;;;;;;;;;;;;-0.32;99.65;98936.81;1727213;82;21145;-42
2021/01/28 10:20:40;;;;;;;11.50;6.17;;;;;;;-0.20;98.09;98935.47;1716373;82;20185;-44
2021/01/28 10:24:01;;;;;;;10.53;6.97;;;;;;;-0.20;98.09;98935.47;1720385;82;21432;-43
2021/01/28 10:29:25;;;;;;;10.08;6.12;;;;;;;-0.20;98.09;98935.47;1745254;81;21110;-44
2021/01/28 10:35:20;;;;;;;8.70;5.80;;;;;;;-0.20;98.09;98935.47;1739831;81;21133;-43
2021/01/28 10:49:55;;;;;;;9.47;5.80;;;;;;;-0.20;98.09;98935.47;1732413;81;21575;-45
2021/01/28 10:53:05;;;;;;;7.80;5.50;;;;;;;-0.20;98.09;98935.47;1735405;81;21130;-43
2021/01/28 10:57:06;;;;;;;9.47;6.20;;;;;;;-0.20;98.09;98935.47;1738869;80;21150;-42
2021/01/28 11:03:59;;;;;;;8.33;5.33;;;;;;;-0.20;98.09;98935.47;1706994;82;21190;-43
2021/01/28 11:06:27;;;;;;;10.80;7.28;;;;;;;-0.20;98.09;98935.47;1770367;80;21138;-44
2021/01/28 11:08:54;;;;;;;9.23;6.40;;;;;;;0.20;90.73;98880.55;1767975;80;21974;-44
2021/01/28 11:11:22;;;;;;;9.03;6.00;;;;;;;0.00;91.47;98883.14;1726783;81;21170;-43
2021/01/28 11:13:52;;;;;;;7.67;5.47;;;;;;;0.06;92.32;98889.89;1768348;79;21626;-44
2021/01/28 11:16:23;;;;;;;7.03;5.30;;;;;;;0.01;91.30;98883.98;1767453;80;21181;-44
2021/01/28 11:18:52;;;;;;;11.87;5.53;;;;;;;0.02;91.42;98881.75;1770920;80;21293;-44
2021/01/28 11:21:20;;;;;;;7.60;5.50;;;;;;;0.01;91.23;98886.14;1766038;80;21268;-45
2021/01/28 11:23:48;;;;;;;12.77;5.90;;;;;;;0.04;91.65;98870.75;1768909;79;21569;-42
2021/01/28 11:26:16;;;;;;;8.70;5.67;;;;;;;0.10;92.10;98873.10;1765925;80;21170;-41
2021/01/28 11:28:44;;;;;;;8.80;5.83;;;;;;;0.14;92.04;98868.98;1768433;79;21137;-43
2021/01/28 11:31:12;;;;;;;8.20;5.53;;;;;;;0.19;91.79;98862.25;1766013;80;21116;-44
2021/01/28 11:33:40;;;;;;;9.00;6.07;;;;;;;0.21;91.82;98855.17;1765261;80;21165;-44
2021/01/28 11:36:08;;;;;;;6.83;4.97;;;;;;;0.20;90.49;98846.89;1766286;80;21129;-40
2021/01/28 11:38:35;;;;;;;8.13;5.47;;;;;;;0.25;91.69;98838.38;1764190;80;21208;-45
2021/01/28 11:41:04;;;;;;;6.67;5.03;;;;;;;0.30;91.61;98844.28;1766166;79;21509;-43
2021/01/28 11:43:33;;;;;;;7.43;5.70;;;;;;;0.35;91.97;98843.66;1769775;80;21177;-43
2021/01/28 11:46:00;;;;;;;7.90;5.30;;;;;;;0.35;90.22;98846.28;1766447;80;21133;-42
2021/01/28 11:48:28;;;;;;;8.37;5.57;;;;;;;0.37;90.57;98839.17;1768730;80;21923;-42
2021/01/28 11:50:56;;;;;;;7.50;5.17;;;;;;;0.37;89.89;98820.81;1766076;80;21604;-44
2021/01/28 11:53:24;;;;;;;6.10;4.63;;;;;;;0.45;90.73;98813.92;1764474;80;21146;-43
2021/01/28 11:55:52;;;;;;;7.60;5.80;;;;;;;0.50;91.57;98817.66;1765817;80;21167;-44
2021/01/28 11:58:20;;;;;;;7.47;5.17;;;;;;;0.46;89.24;98814.33;1769348;80;21150;-44
2021/01/28 12:00:47;;;;;;;8.63;5.47;;;;;;;0.51;90.37;98819.38;1764968;80;21685;-44
2021/01/28 12:03:15;;;;;;;7.90;5.40;;;;;;;0.51;89.65;98821.55;1760425;80;21181;-44
2021/01/28 12:05:43;;;;;;;6.73;4.90;;;;;;;0.51;89.78;98814.14;1767491;80;21162;-42
2021/01/28 12:08:11;;;;;;;9.03;6.03;;;;;;;0.51;88.80;98807.11;1768160;80;21578;-43
2021/01/28 12:10:39;;;;;;;5.95;4.85;;;;;;;0.51;89.25;98800.55;1767732;80;22044;-44
2021/01/28 12:13:06;;;;;;;6.67;4.47;;;;;;;0.45;87.17;98798.18;1763317;80;21645;-44
2021/01/28 12:15:34;;;;;;;7.10;4.87;;;;;;;0.49;88.11;98797.61;1765371;80;21118;-44
2021/01/28 12:18:01;;;;;;;7.12;5.53;;;;;;;0.47;87.61;98787.17;1763430;80;21106;-42
2021/01/28 12:20:30;;;;;;;7.37;5.55;;;;;;;0.49;88.74;98782.71;1768274;80;21117;-43
2021/01/28 12:22:58;;;;;;;7.17;5.08;;;;;;;0.50;88.70;98800.61;1768638;80;21177;-43
2021/01/28 12:25:27;;;;;;;7.95;4.70;;;;;;;0.55;89.88;98808.66;1759042;80;21106;-43
2021/01/28 12:27:55;;;;;;;7.62;4.33;;;;;;;0.58;89.41;98809.86;1766113;80;21161;-43
2021/01/28 12:30:25;;;;;;;6.95;4.53;;;;;;;0.55;88.11;98815.69;1765891;80;21134;-43
2021/01/28 12:32:52;;;;;;;6.62;5.25;;;;;;;0.59;88.71;98806.77;1765356;80;21133;-43
2021/01/28 12:35:22;;;;;;;8.18;5.03;;;;;;;0.56;87.74;98814.78;1770434;80;21117;-42
2021/01/28 12:37:51;;;;;;;6.83;4.80;;;;;;;0.61;88.31;98814.97;1769091;80;21145;-42
2021/01/28 12:40:20;;;;;;;8.20;4.57;;;;;;;0.61;87.93;98818.91;1767793;80;21141;-42
2021/01/28 12:42:48;;;;;;;7.78;4.80;;;;;;;0.61;87.80;98819.37;1765296;80;21137;-44
2021/01/28 12:45:16;;;;;;;6.75;4.58;;;;;;;0.62;88.26;98831.09;1773438;80;22055;-42
2021/01/28 12:47:43;;;;;;;9.13;5.00;;;;;;;0.63;88.33;98826.69;1769869;80;21157;-43
2021/01/28 12:50:13;;;;;;;7.37;4.53;;;;;;;0.70;89.16;98837.78;1768905;80;21122;-42
2021/01/28 12:52:41;;;;;;;7.03;4.95;;;;;;;0.71;88.50;98841.66;1773775;79;21724;-44
2021/01/28 12:55:09;;;;;;;7.08;4.72;;;;;;;0.77;90.07;98847.09;1768349;80;22028;-44
2021/01/28 12:57:39;;;;;;;5.70;4.65;;;;;;;0.76;88.89;98852.80;1770856;80;21145;-44
2021/01/28 13:00:09;;;;;;;7.95;4.75;;;;;;;0.77;88.71;98854.50;1766125;80;21149;-43
2021/01/28 13:02:38;;;;;;;7.63;4.17;;;;;;;0.76;88.22;98849.34;1773757;80;21144;-44
2021/01/28 13:05:07;;;;;;;6.62;4.55;;;;;;;0.74;87.61;98856.42;1733329;80;21135;-43
2021/01/28 13:07:35;;;;;;;6.97;4.03;;;;;;;0.73;88.70;98859.94;1690647;83;21157;-43
2021/01/28 13:10:04;;;;;;;7.93;4.47;;;;;;;0.74;89.82;98866.45;1712113;83;21185;-44
2021/01/28 13:12:33;;;;;;;6.60;4.62;;;;;;;0.73;89.48;98870.01;1711650;83;21186;-45
2021/01/28 13:15:00;;;;;;;5.63;3.77;;;;;;;0.74;90.01;98858.58;1731388;81;21429;-44
2021/01/28 13:17:28;;;;;;;6.22;4.87;;;;;;;0.74;89.92;98853.80;1738107;81;21657;-42
2021/01/28 13:19:55;;;;;;;7.80;5.60;;;;;;;0.71;88.73;98835.10;1765821;80;21150;-41
2021/01/28 13:22:23;;;;;;;4.97;3.75;;;;;;;0.71;88.73;98839.50;1764910;80;21169;-41
2021/01/28 13:24:51;;;;;;;6.97;4.97;;;;;;;0.73;88.89;98840.27;1763417;80;21147;-43
2021/01/28 13:27:19;;;;;;;6.40;4.67;;;;;;;0.70;88.10;98838.62;1769781;80;21110;-41
2021/01/28 13:29:46;;;;;;;6.90;4.60;;;;;;;0.65;87.29;98839.28;1766505;80;21117;-41
2021/01/28 13:32:14;;;;;;;6.60;4.08;;;;;;;0.66;88.47;98839.70;1766141;80;21143;-41
2021/01/28 13:34:41;;;;;;;5.60;3.97;;;;;;;0.64;88.42;98845.47;1765378;80;21173;-43
2021/01/28 13:37:09;;;;;;;7.03;4.65;;;;;;;0.63;89.40;98836.75;1766037;80;21138;-43
2021/01/28 13:39:36;;;;;;;10.28;4.45;;;;;;;0.61;88.91;98832.02;1766948;80;21149;-42
2021/01/28 13:42:04;;;;;;;6.60;4.35;;;;;;;0.52;90.22;98836.34;1768890;80;21106;-42
2021/01/28 13:44:31;;;;;;;6.60;4.08;;;;;;;0.50;91.67;98826.84;1768510;80;21688;-46
2021/01/28 13:46:59;;;;;;;7.03;4.17;;;;;;;0.42;91.20;98824.55;1763316;80;21625;-45
2021/01/28 13:49:27;;;;;;;6.60;4.13;;;;;;;0.40;91.52;98818.52;1768162;80;21153;-45
2021/01/28 13:51:54;;;;;;;6.10;3.95;;;;;;;0.38;92.38;98814.66;1767703;80;21601;-45
2021/01/28 13:54:25;;;;;;;5.92;4.22;;;;;;;0.39;92.96;98820.76;1766585;80;21138;-45
2021/01/28 13:56:54;;;;;;;8.08;4.72;;;;;;;0.36;92.59;98807.78;1766245;80;21180;-43
2021/01/28 13:59:22;;;;;;;6.45;4.53;;;;;;;0.39;93.79;98805.86;1764135;80;21122;-43
2021/01/28 14:01:50;;;;;;;9.08;5.20;;;;;;;0.40;93.19;98815.45;1763714;80;21157;-42
2021/01/28 14:04:18;;;;;;;5.70;3.70;;;;;;;0.41;93.28;98826.80;1763915;80;21141;-43
2021/01/28 14:06:48;;;;;;;7.87;4.62;;;;;;;0.41;93.04;98832.89;1767739;80;21280;-46
2021/01/28 14:09:16;;;;;;;5.30;3.77;;;;;;;0.39;92.86;98821.60;1766591;80;21165;-43
2021/01/28 14:11:45;;;;;;;7.05;4.67;;;;;;;0.40;93.18;98832.94;1766230;80;21149;-44
2021/01/28 14:14:13;;;;;;;6.58;4.47;;;;;;;0.39;93.08;98834.72;1770832;80;21558;-42
2021/01/28 14:16:41;;;;;;;6.10;4.47;;;;;;;0.41;93.63;98840.75;1768874;80;21161;-43
2021/01/28 14:19:09;;;;;;;4.95;3.87;;;;;;;0.42;93.68;98846.38;1772889;79;22210;-43
2021/01/28 14:21:36;;;;;;;5.17;3.72;;;;;;;0.46;93.91;98858.08;1766581;80;21177;-43
2021/01/28 14:24:05;;;;;;;7.25;4.45;;;;;;;0.51;94.25;98867.45;1767037;80;21131;-43
2021/01/28 14:26:33;;;;;;;6.33;4.67;;;;;;;0.57;94.28;98881.60;1763822;80;21166;-44
2021/01/28 14:29:01;;;;;;;5.92;3.90;;;;;;;0.61;94.50;98888.44;1775010;79;21283;-43
2021/01/28 14:31:29;;;;;;;5.33;3.55;;;;;;;0.67;94.57;98895.19;1768372;80;21142;-41
2021/01/28 14:33:56;;;;;;;6.05;3.92;;;;;;;0.69;94.50;98894.66;1769971;80;21137;-43
2021/01/28 14:36:24;;;;;;;6.15;3.92;;;;;;;0.71;94.61;98898.08;1767293;80;21112;-41
2021/01/28 14:38:52;;;;;;;10.03;4.28;;;;;;;0.76;94.65;98893.95;1767894;80;21173;-42
2021/01/28 14:41:19;;;;;;;6.55;4.85;;;;;;;0.77;94.54;98872.87;1760093;80;21453;-39
2021/01/28 14:43:47;;;;;;;6.70;4.50;;;;;;;0.77;94.13;98876.80;1759363;80;21157;-39
2021/01/28 14:46:15;;;;;;;6.17;4.55;;;;;;;0.69;93.38;98867.58;1754993;79;21116;-40
2021/01/28 14:48:42;;;;;;;6.20;4.67;;;;;;;0.60;93.14;98867.50;1756626;80;21872;-40
2021/01/28 14:51:10;;;;;;;7.45;4.67;;;;;;;0.54;93.62;98870.40;1758936;80;21123;-44
2021/01/28 14:53:39;;;;;;;6.45;4.65;;;;;;;0.48;93.16;98871.95;1726777;81;21111;-44
2021/01/28 14:56:06;;;;;;;5.97;4.53;;;;;;;0.43;93.43;98872.18;1749900;80;21707;-41
2021/01/28 14:58:34;;;;;;;6.33;4.30;;;;;;;0.38;93.66;98867.59;1751107;80;21633;-39
2021/01/28 15:01:01;;;;;;;4.80;3.83;;;;;;;0.32;93.88;98860.80;1749298;79;21674;-42
2021/01/28 15:03:29;;;;;;;6.45;4.95;;;;;;;0.33;94.21;98852.50;1752518;80;21768;-41
2021/01/28 15:05:57;;;;;;;6.40;4.10;;;;;;;0.30;94.11;98841.66;1756036;79;21697;-40
2021/01/28 15:08:25;;;;;;;7.10;4.78;;;;;;;0.30;95.20;98838.19;1760437;80;21670;-40
2021/01/28 15:10:53;;;;;;;7.12;4.80;;;;;;;0.26;95.80;98830.92;1765371;80;21570;-41
2021/01/28 15:13:21;;;;;;;8.25;4.97;;;;;;;0.21;94.83;98820.63;1724766;81;21150;-39
2021/01/28 15:15:48;;;;;;;7.35;5.35;;;;;;;0.19;94.18;98814.58;1759614;80;21645;-40
2021/01/28 15:18:17;;;;;;;7.75;6.15;;;;;;;0.15;93.98;98807.78;1765139;80;21114;-40
2021/01/28 15:20:45;;;;;;;7.53;4.67;;;;;;;0.11;93.58;98798.33;1766765;80;21129;-41
2021/01/28 15:23:12;;;;;;;7.53;5.83;;;;;;;0.11;93.79;98790.94;1763975;80;21150;-44
2021/01/28 15:25:40;;;;;;;6.97;4.87;;;;;;;0.10;93.35;98790.52;1763684;80;21179;-44
2021/01/28 15:28:08;;;;;;;7.75;5.47;;;;;;;0.09;93.37;98798.01;1762281;80;21102;-44
2021/01/28 15:30:36;;;;;;;7.65;5.65;;;;;;;0.05;92.86;98799.92;1731593;81;21518;-44
2021/01/28 15:33:03;;;;;;;8.98;5.72;;;;;;;0.08;93.51;98815.52;1761880;80;21165;-45
2021/01/28 15:35:31;;;;;;;7.95;5.87;;;;;;;0.09;93.14;98822.91;1727554;81;21154;-43
2021/01/28 15:37:59;;;;;;;6.08;5.03;;;;;;;0.13;93.32;98850.25;1707071;82;21153;-41
2021/01/28 15:40:26;;;;;;;10.10;7.12;;;;;;;0.17;93.75;98850.96;1728980;81;21173;-41
2021/01/28 15:42:55;;;;;;;7.85;5.40;;;;;;;0.23;93.94;98861.64;1772941;80;21114;-39
2021/01/28 15:45:23;;;;;;;9.28;6.03;;;;;;;0.24;93.70;98858.97;1768366;80;21511;-38
2021/01/28 15:47:51;;;;;;;7.15;5.33;;;;;;;0.24;93.66;98855.04;1770439;80;21144;-40
2021/01/28 15:50:19;;;;;;;7.30;5.00;;;;;;;0.27;93.54;98852.28;1771295;80;21134;-39
2021/01/28 15:52:47;;;;;;;8.58;6.12;;;;;;;0.28;93.79;98859.68;1766679;80;21157;-41
2021/01/28 15:55:15;;;;;;;9.03;5.87;;;;;;;0.30;94.09;98869.19;1766971;80;21157;-41
2021/01/28 15:57:42;;;;;;;8.93;5.95;;;;;;;0.34;94.15;98872.55;1768474;79;21136;-41
2021/01/28 16:00:11;;;;;;;10.15;5.60;;;;;;;0.38;94.18;98866.28;1769520;80;21149;-39
2021/01/28 16:02:39;;;;;;;8.35;5.90;;;;;;;0.38;94.05;98871.05;1769912;80;21145;-41
2021/01/28 16:05:08;;;;;;;7.55;5.50;;;;;;;0.39;93.96;98870.12;1769413;80;21150;-40
2021/01/28 16:07:36;;;;;;;8.33;5.53;;;;;;;0.37;93.50;98859.30;1768761;80;21147;-42
2021/01/28 16:10:05;;;;;;;10.20;6.80;;;;;;;0.38;93.73;98851.38;1769208;80;21907;-41
2021/01/28 16:12:33;;;;;;;9.50;6.60;;;;;;;0.36;93.22;98857.61;1767265;80;21149;-40
2021/01/28 16:15:05;;;;;;;9.63;5.60;;;;;;;0.32;92.37;98856.88;1765887;80;21458;-41
2021/01/28 16:17:33;;;;;;;9.68;5.90;;;;;;;0.28;92.45;98851.38;1767656;80;21126;-40
2021/01/28 16:20:06;;;;;;;10.08;6.17;;;;;;;0.28;92.24;98855.31;1771142;80;21150;-39
2021/01/28 16:22:33;;;;;;;8.28;6.10;;;;;;;0.29;92.69;98862.72;1769483;80;21153;-38